sensor_id;sensor_type;location;lat;lon;timestamp;pressure;altitude;pressure_sealevel;temperature;humidity
51313;BME280;37397;53.226;10.400;2022-09-27T00:01:11;98894.59;;;13.56;68.36
51313;BME280;37397;53.226;10.400;2022-09-27T00:03:38;98890.38;;;13.57;68.14
51313;BME280;37397;53.226;10.400;2022-09-27T00:06:34;98890.16;;;13.55;68.34
51313;BME280;37397;53.226;10.400;2022-09-27T00:09:06;98888.59;;;13.54;68.44
51313;BME280;37397;53.226;10.400;2022-09-27T00:11:35;98891.72;;;13.56;68.31
51313;BME280;37397;53.226;10.400;2022-09-27T00:14:03;98893.03;;;13.55;68.26
51313;BME280;37397;53.226;10.400;2022-09-27T00:16:32;98888.84;;;13.56;68.17
51313;BME280;37397;53.226;10.400;2022-09-27T00:19:12;98879.25;;;13.53;68.29
51313;BME280;37397;53.226;10.400;2022-09-27T00:21:40;98878.69;;;13.55;68.37
51313;BME280;37397;53.226;10.400;2022-09-27T00:24:11;98874.81;;;13.52;68.50
51313;BME280;37397;53.226;10.400;2022-09-27T00:26:38;98880.00;;;13.54;68.50
51313;BME280;37397;53.226;10.400;2022-09-27T00:29:05;98875.63;;;13.53;68.33
51313;BME280;37397;53.226;10.400;2022-09-27T00:31:32;98873.53;;;13.53;68.28
51313;BME280;37397;53.226;10.400;2022-09-27T00:34:00;98871.41;;;13.54;68.30
51313;BME280;37397;53.226;10.400;2022-09-27T00:36:28;98871.22;;;13.52;68.52
51313;BME280;37397;53.226;10.400;2022-09-27T00:38:56;98867.03;;;13.53;68.74
51313;BME280;37397;53.226;10.400;2022-09-27T00:41:30;98865.47;;;13.52;68.61
51313;BME280;37397;53.226;10.400;2022-09-27T00:44:52;98855.31;;;13.50;68.49
51313;BME280;37397;53.226;10.400;2022-09-27T00:49:39;98858.19;;;13.50;68.55
51313;BME280;37397;53.226;10.400;2022-09-27T00:55:22;98855.31;;;13.50;68.41
51313;BME280;37397;53.226;10.400;2022-09-27T00:57:49;98860.06;;;13.48;68.50
51313;BME280;37397;53.226;10.400;2022-09-27T01:00:17;98855.13;;;13.48;68.54
51313;BME280;37397;53.226;10.400;2022-09-27T01:02:49;98837.91;;;13.48;68.58
51313;BME280;37397;53.226;10.400;2022-09-27T01:05:18;98839.22;;;13.47;68.60
51313;BME280;37397;53.226;10.400;2022-09-27T01:07:46;98842.34;;;13.49;68.79
51313;BME280;37397;53.226;10.400;2022-09-27T01:10:13;98837.91;;;13.48;68.68
51313;BME280;37397;53.226;10.400;2022-09-27T01:13:12;98835.38;;;13.45;68.77
51313;BME280;37397;53.226;10.400;2022-09-27T01:19:09;98832.53;;;13.45;68.76
51313;BME280;37397;53.226;10.400;2022-09-27T01:21:44;98833.28;;;13.45;68.70
51313;BME280;37397;53.226;10.400;2022-09-27T01:24:51;98819.50;;;13.44;68.85
51313;BME280;37397;53.226;10.400;2022-09-27T01:28:03;98812.81;;;13.41;68.73
51313;BME280;37397;53.226;10.400;2022-09-27T01:30:41;98813.03;;;13.43;68.85
51313;BME280;37397;53.226;10.400;2022-09-27T01:38:44;98806.28;;;13.41;68.79
51313;BME280;37397;53.226;10.400;2022-09-27T01:41:35;98801.34;;;13.41;68.67
51313;BME280;37397;53.226;10.400;2022-09-27T01:47:03;98811.47;;;13.42;68.84
51313;BME280;37397;53.226;10.400;2022-09-27T01:49:52;98810.69;;;13.42;68.93
51313;BME280;37397;53.226;10.400;2022-09-27T01:52:25;98798.47;;;13.41;68.94
51313;BME280;37397;53.226;10.400;2022-09-27T01:54:57;98798.47;;;13.41;69.01
51313;BME280;37397;53.226;10.400;2022-09-27T01:57:44;98786.03;;;13.39;68.97
51313;BME280;37397;53.226;10.400;2022-09-27T02:00:18;98796.94;;;13.40;69.12
51313;BME280;37397;53.226;10.400;2022-09-27T02:02:58;98788.34;;;13.40;69.06
51313;BME280;37397;53.226;10.400;2022-09-27T02:05:56;98791.75;;;13.39;69.08
51313;BME280;37397;53.226;10.400;2022-09-27T02:08:54;98782.41;;;13.38;69.07
51313;BME280;37397;53.226;10.400;2022-09-27T02:11:42;98789.66;;;13.39;68.98
51313;BME280;37397;53.226;10.400;2022-09-27T02:14:18;98783.16;;;13.39;68.93
51313;BME280;37397;53.226;10.400;2022-09-27T02:16:56;98777.44;;;13.39;68.97
51313;BME280;37397;53.226;10.400;2022-09-27T02:22:50;98775.13;;;13.37;69.12
51313;BME280;37397;53.226;10.400;2022-09-27T02:25:25;98770.69;;;13.36;69.21
51313;BME280;37397;53.226;10.400;2022-09-27T02:28:05;98768.63;;;13.37;69.24
51313;BME280;37397;53.226;10.400;2022-09-27T02:30:36;98759.47;;;13.38;69.18
51313;BME280;37397;53.226;10.400;2022-09-27T02:33:23;98768.63;;;13.37;69.28
51313;BME280;37397;53.226;10.400;2022-09-27T02:35:51;98767.84;;;13.36;69.20
51313;BME280;37397;53.226;10.400;2022-09-27T02:38:18;98768.63;;;13.37;69.15
51313;BME280;37397;53.226;10.400;2022-09-27T02:40:46;98766.53;;;13.37;69.19
51313;BME280;37397;53.226;10.400;2022-09-27T02:43:15;98764.41;;;13.38;69.23
51313;BME280;37397;53.226;10.400;2022-09-27T02:54:09;98759.03;;;13.34;69.21
51313;BME280;37397;53.226;10.400;2022-09-27T03:00:48;98762.44;;;13.32;69.23
51313;BME280;37397;53.226;10.400;2022-09-27T03:03:48;98750.19;;;13.32;69.25
51313;BME280;37397;53.226;10.400;2022-09-27T03:06:19;98751.28;;;13.29;69.28
51313;BME280;37397;53.226;10.400;2022-09-27T03:08:49;98756.16;;;13.34;69.33
51313;BME280;37397;53.226;10.400;2022-09-27T03:11:16;98754.06;;;13.35;69.52
51313;BME280;37397;53.226;10.400;2022-09-27T03:13:43;98746.81;;;13.34;69.31
51313;BME280;37397;53.226;10.400;2022-09-27T03:16:30;98751.78;;;13.33;69.29
51313;BME280;37397;53.226;10.400;2022-09-27T03:19:17;98735.88;;;13.32;69.20
51313;BME280;37397;53.226;10.400;2022-09-27T03:22:04;98742.16;;;13.30;69.26
51313;BME280;37397;53.226;10.400;2022-09-27T03:24:31;98735.34;;;13.34;69.35
51313;BME280;37397;53.226;10.400;2022-09-27T03:26:57;98733.81;;;13.32;69.30
51313;BME280;37397;53.226;10.400;2022-09-27T03:29:24;98736.88;;;13.35;69.33
51313;BME280;37397;53.226;10.400;2022-09-27T03:32:01;98731.47;;;13.31;69.22
51313;BME280;37397;53.226;10.400;2022-09-27T03:34:43;98729.94;;;13.30;69.17
51313;BME280;37397;53.226;10.400;2022-09-27T03:37:10;98729.94;;;13.30;69.43
51313;BME280;37397;53.226;10.400;2022-09-27T03:39:37;98728.06;;;13.32;69.41
51313;BME280;37397;53.226;10.400;2022-09-27T03:42:04;98721.56;;;13.32;69.33
51313;BME280;37397;53.226;10.400;2022-09-27T03:44:31;98728.06;;;13.32;69.28
51313;BME280;37397;53.226;10.400;2022-09-27T03:46:58;98727.28;;;13.32;69.29
51313;BME280;37397;53.226;10.400;2022-09-27T03:49:25;98725.19;;;13.32;69.29
51313;BME280;37397;53.226;10.400;2022-09-27T03:51:52;98727.28;;;13.32;69.58
51313;BME280;37397;53.226;10.400;2022-09-27T03:54:18;98718.47;;;13.30;69.61
51313;BME280;37397;53.226;10.400;2022-09-27T03:56:45;98716.63;;;13.32;69.46
51313;BME280;37397;53.226;10.400;2022-09-27T03:59:12;98718.47;;;13.30;69.46
51313;BME280;37397;53.226;10.400;2022-09-27T04:01:58;98708.53;;;13.31;69.42
51313;BME280;37397;53.226;10.400;2022-09-27T04:04:45;98701.28;;;13.30;69.54
51313;BME280;37397;53.226;10.400;2022-09-27T04:07:12;98712.75;;;13.30;69.53
51313;BME280;37397;53.226;10.400;2022-09-27T04:09:38;98716.38;;;13.30;69.57
51313;BME280;37397;53.226;10.400;2022-09-27T04:12:12;98713.50;;;13.30;69.62
51313;BME280;37397;53.226;10.400;2022-09-27T04:14:38;98698.19;;;13.28;69.74
51313;BME280;37397;53.226;10.400;2022-09-27T04:17:24;98703.91;;;13.28;69.85
51313;BME280;37397;53.226;10.400;2022-09-27T04:20:16;98698.19;;;13.28;69.82
51313;BME280;37397;53.226;10.400;2022-09-27T04:22:44;98699.75;;;13.29;69.79
51313;BME280;37397;53.226;10.400;2022-09-27T04:25:11;98701.28;;;13.30;69.81
51313;BME280;37397;53.226;10.400;2022-09-27T04:27:43;98708.34;;;13.29;69.58
51313;BME280;37397;53.226;10.400;2022-09-27T04:30:11;98705.47;;;13.29;69.83
51313;BME280;37397;53.226;10.400;2022-09-27T04:32:58;98708.34;;;13.29;70.08
51313;BME280;37397;53.226;10.400;2022-09-27T04:35:45;98706.22;;;13.29;69.85
51313;BME280;37397;53.226;10.400;2022-09-27T04:38:32;98698.19;;;13.28;69.85
51313;BME280;37397;53.226;10.400;2022-09-27T04:40:59;98705.47;;;13.29;69.84
51313;BME280;37397;53.226;10.400;2022-09-27T04:43:31;98704.72;;;13.28;69.79
51313;BME280;37397;53.226;10.400;2022-09-27T04:45:58;98706.22;;;13.29;69.77
51313;BME280;37397;53.226;10.400;2022-09-27T04:48:24;98702.41;;;13.27;69.80
51313;BME280;37397;53.226;10.400;2022-09-27T04:50:56;98705.47;;;13.29;69.77
51313;BME280;37397;53.226;10.400;2022-09-27T04:53:24;98711.19;;;13.29;69.76
51313;BME280;37397;53.226;10.400;2022-09-27T04:55:52;98712.75;;;13.30;69.80
51313;BME280;37397;53.226;10.400;2022-09-27T04:58:20;98701.84;;;13.28;69.83
51313;BME280;37397;53.226;10.400;2022-09-27T05:00:47;98707.03;;;13.30;69.67
51313;BME280;37397;53.226;10.400;2022-09-27T05:03:33;98712.75;;;13.30;69.85
51313;BME280;37397;53.226;10.400;2022-09-27T05:06:08;98712.75;;;13.30;69.72
51313;BME280;37397;53.226;10.400;2022-09-27T05:08:35;98701.28;;;13.30;69.64
51313;BME280;37397;53.226;10.400;2022-09-27T05:11:17;98714.28;;;13.31;69.71
51313;BME280;37397;53.226;10.400;2022-09-27T05:14:15;98703.38;;;13.29;69.81
51313;BME280;37397;53.226;10.400;2022-09-27T05:16:53;98702.06;;;13.30;69.67
51313;BME280;37397;53.226;10.400;2022-09-27T05:19:42;98711.19;;;13.29;69.76
51313;BME280;37397;53.226;10.400;2022-09-27T05:22:15;98715.63;;;13.30;69.71
51313;BME280;37397;53.226;10.400;2022-09-27T05:24:42;98712.75;;;13.30;69.94
51313;BME280;37397;53.226;10.400;2022-09-27T05:27:12;98716.16;;;13.28;69.82
51313;BME280;37397;53.226;10.400;2022-09-27T05:29:41;98715.38;;;13.28;69.98
51313;BME280;37397;53.226;10.400;2022-09-27T05:32:13;98713.31;;;13.28;69.91
51313;BME280;37397;53.226;10.400;2022-09-27T05:34:41;98724.19;;;13.30;69.92
51313;BME280;37397;53.226;10.400;2022-09-27T05:37:08;98719.78;;;13.29;69.98
51313;BME280;37397;53.226;10.400;2022-09-27T05:39:38;98714.06;;;13.29;69.92
51313;BME280;37397;53.226;10.400;2022-09-27T05:42:04;98719.03;;;13.28;70.08
51313;BME280;37397;53.226;10.400;2022-09-27T05:44:33;98714.94;;;13.24;70.03
51313;BME280;37397;53.226;10.400;2022-09-27T05:47:01;98721.09;;;13.28;70.02
51313;BME280;37397;53.226;10.400;2022-09-27T05:49:31;98722.66;;;13.29;70.02
51313;BME280;37397;53.226;10.400;2022-09-27T05:52:00;98730.47;;;13.28;69.92
51313;BME280;37397;53.226;10.400;2022-09-27T05:54:28;98721.88;;;13.28;70.19
51313;BME280;37397;53.226;10.400;2022-09-27T05:56:57;98728.38;;;13.29;69.98
51313;BME280;37397;53.226;10.400;2022-09-27T05:59:42;98724.75;;;13.28;70.08
51313;BME280;37397;53.226;10.400;2022-09-27T06:02:20;98730.47;;;13.28;70.28
51313;BME280;37397;53.226;10.400;2022-09-27T06:04:50;98726.81;;;13.28;70.08
51313;BME280;37397;53.226;10.400;2022-09-27T06:07:35;98729.47;;;13.26;70.21
51313;BME280;37397;53.226;10.400;2022-09-27T06:10:07;98722.66;;;13.29;70.20
51313;BME280;37397;53.226;10.400;2022-09-27T06:12:34;98727.16;;;13.24;70.30
51313;BME280;37397;53.226;10.400;2022-09-27T06:15:13;98728.38;;;13.29;70.17
51313;BME280;37397;53.226;10.400;2022-09-27T06:17:42;98727.06;;;13.30;70.18
51313;BME280;37397;53.226;10.400;2022-09-27T06:20:15;98724.19;;;13.30;70.24
51313;BME280;37397;53.226;10.400;2022-09-27T06:22:45;98727.81;;;13.30;70.31
51313;BME280;37397;53.226;10.400;2022-09-27T06:25:12;98731.47;;;13.31;70.28
51313;BME280;37397;53.226;10.400;2022-09-27T06:28:05;98722.66;;;13.29;70.22
51313;BME280;37397;53.226;10.400;2022-09-27T06:30:40;98721.88;;;13.28;70.43
51313;BME280;37397;53.226;10.400;2022-09-27T06:33:19;98730.69;;;13.30;70.43
51313;BME280;37397;53.226;10.400;2022-09-27T06:35:50;98731.47;;;13.31;70.45
51313;BME280;37397;53.226;10.400;2022-09-27T06:38:17;98735.88;;;13.32;70.40
51313;BME280;37397;53.226;10.400;2022-09-27T06:41:02;98744.47;;;13.32;70.37
51313;BME280;37397;53.226;10.400;2022-09-27T06:43:41;98735.66;;;13.30;70.39
51313;BME280;37397;53.226;10.400;2022-09-27T06:46:31;98737.44;;;13.33;70.58
51313;BME280;37397;53.226;10.400;2022-09-27T06:49:09;98741.09;;;13.34;70.61
51313;BME280;37397;53.226;10.400;2022-09-27T06:51:38;98745.47;;;13.35;70.45
51313;BME280;37397;53.226;10.400;2022-09-27T06:54:05;98752.75;;;13.36;70.56
51313;BME280;37397;53.226;10.400;2022-09-27T06:56:32;98757.16;;;13.37;70.45
51313;BME280;37397;53.226;10.400;2022-09-27T06:58:59;98757.16;;;13.37;70.48
51313;BME280;37397;53.226;10.400;2022-09-27T07:01:44;98764.41;;;13.38;70.57
51313;BME280;37397;53.226;10.400;2022-09-27T07:04:29;98767.84;;;13.36;70.52
51313;BME280;37397;53.226;10.400;2022-09-27T07:07:02;98765.22;;;13.38;70.65
51313;BME280;37397;53.226;10.400;2022-09-27T07:09:33;98767.53;;;13.40;70.63
51313;BME280;37397;53.226;10.400;2022-09-27T07:11:59;98763.66;;;13.37;70.56
51313;BME280;37397;53.226;10.400;2022-09-27T07:14:29;98761.78;;;13.40;70.57
51313;BME280;37397;53.226;10.400;2022-09-27T07:16:55;98772.69;;;13.41;70.72
51313;BME280;37397;53.226;10.400;2022-09-27T07:19:24;98769.03;;;13.41;70.78
51313;BME280;37397;53.226;10.400;2022-09-27T07:21:51;98768.50;;;13.42;70.73
51313;BME280;37397;53.226;10.400;2022-09-27T07:24:18;98767.19;;;13.43;70.69
51313;BME280;37397;53.226;10.400;2022-09-27T07:26:47;98774.47;;;13.44;70.82
51313;BME280;37397;53.226;10.400;2022-09-27T07:29:15;98772.34;;;13.45;70.78
51313;BME280;37397;53.226;10.400;2022-09-27T07:31:42;98773.34;;;13.47;70.82
51313;BME280;37397;53.226;10.400;2022-09-27T07:34:09;98776.78;;;13.46;70.72
51313;BME280;37397;53.226;10.400;2022-09-27T07:36:36;98779.31;;;13.49;70.86
51313;BME280;37397;53.226;10.400;2022-09-27T07:39:02;98782.38;;;13.52;70.89
51313;BME280;37397;53.226;10.400;2022-09-27T07:41:31;98792.75;;;13.55;70.96
51313;BME280;37397;53.226;10.400;2022-09-27T07:43:58;98786.78;;;13.53;70.75
51313;BME280;37397;53.226;10.400;2022-09-27T07:46:25;98796.06;;;13.59;70.79
51313;BME280;37397;53.226;10.400;2022-09-27T07:49:10;98791.09;;;13.59;70.77
51313;BME280;37397;53.226;10.400;2022-09-27T07:52:15;98794.72;;;13.60;70.79
51313;BME280;37397;53.226;10.400;2022-09-27T07:54:50;98790.75;;;13.63;70.78
51313;BME280;37397;53.226;10.400;2022-09-27T07:57:31;98794.59;;;13.65;70.89
51313;BME280;37397;53.226;10.400;2022-09-27T07:59:59;98799.78;;;13.67;70.76
51313;BME280;37397;53.226;10.400;2022-09-27T08:02:26;98800.00;;;13.69;70.87
51313;BME280;37397;53.226;10.400;2022-09-27T08:04:53;98806.69;;;13.72;70.78
51313;BME280;37397;53.226;10.400;2022-09-27T08:07:22;98804.84;;;13.74;70.73
51313;BME280;37397;53.226;10.400;2022-09-27T08:09:52;98812.88;;;13.76;70.74
51313;BME280;37397;53.226;10.400;2022-09-27T08:12:19;98815.19;;;13.77;70.81
51313;BME280;37397;53.226;10.400;2022-09-27T08:14:49;98824.56;;;13.78;70.85
51313;BME280;37397;53.226;10.400;2022-09-27T08:17:16;98811.22;;;13.80;70.65
51313;BME280;37397;53.226;10.400;2022-09-27T08:20:01;98825.78;;;13.82;70.69
51313;BME280;37397;53.226;10.400;2022-09-27T08:22:45;98827.31;;;13.83;70.61
51313;BME280;37397;53.226;10.400;2022-09-27T08:25:41;98825.00;;;13.82;70.67
51313;BME280;37397;53.226;10.400;2022-09-27T08:28:39;98829.84;;;13.87;70.38
51313;BME280;37397;53.226;10.400;2022-09-27T08:31:16;98835.78;;;13.89;70.46
51313;BME280;37397;53.226;10.400;2022-09-27T08:33:48;98838.09;;;13.91;70.39
51313;BME280;37397;53.226;10.400;2022-09-27T08:36:14;98838.09;;;13.91;70.47
51313;BME280;37397;53.226;10.400;2022-09-27T08:38:41;98846.38;;;13.94;70.34
51313;BME280;37397;53.226;10.400;2022-09-27T08:47:15;98847.81;;;14.01;70.27
51313;BME280;37397;53.226;10.400;2022-09-27T08:50:09;98854.09;;;13.99;70.13
51313;BME280;37397;53.226;10.400;2022-09-27T08:52:46;98857.53;;;13.98;70.16
51313;BME280;37397;53.226;10.400;2022-09-27T08:55:23;98846.25;;;14.00;70.14
51313;BME280;37397;53.226;10.400;2022-09-27T08:57:55;98851.66;;;14.03;69.96
51313;BME280;37397;53.226;10.400;2022-09-27T09:00:24;98853.97;;;14.05;70.07
51313;BME280;37397;53.226;10.400;2022-09-27T09:02:55;98852.44;;;14.04;70.17
51313;BME280;37397;53.226;10.400;2022-09-27T09:05:31;98859.69;;;14.05;69.74
51313;BME280;37397;53.226;10.400;2022-09-27T09:16:57;98866.66;;;14.10;69.93
51313;BME280;37397;53.226;10.400;2022-09-27T09:22:43;98869.72;;;14.12;69.98
51313;BME280;37397;53.226;10.400;2022-09-27T09:25:57;98869.72;;;14.12;70.01
51313;BME280;37397;53.226;10.400;2022-09-27T09:31:41;98876.47;;;14.14;70.05
51313;BME280;37397;53.226;10.400;2022-09-27T09:34:20;98873.59;;;14.14;70.03
51313;BME280;37397;53.226;10.400;2022-09-27T09:39:32;98873.47;;;14.20;70.34
51313;BME280;37397;53.226;10.400;2022-09-27T09:42:03;98877.88;;;14.21;70.25
51313;BME280;37397;53.226;10.400;2022-09-27T09:44:47;98872.91;;;14.21;69.98
51313;BME280;37397;53.226;10.400;2022-09-27T09:47:34;98881.50;;;14.21;70.07
51313;BME280;37397;53.226;10.400;2022-09-27T09:50:16;98881.19;;;14.25;70.06
51313;BME280;37397;53.226;10.400;2022-09-27T09:52:51;98874.91;;;14.27;70.23
51313;BME280;37397;53.226;10.400;2022-09-27T09:55:22;98872.22;;;14.29;70.16
51313;BME280;37397;53.226;10.400;2022-09-27T10:00:29;98862.50;;;14.32;70.11
51313;BME280;37397;53.226;10.400;2022-09-27T10:02:58;98879.38;;;14.35;70.29
51313;BME280;37397;53.226;10.400;2022-09-27T10:05:26;98875.97;;;14.37;70.28
51313;BME280;37397;53.226;10.400;2022-09-27T10:08:18;98877.28;;;14.36;70.35
51313;BME280;37397;53.226;10.400;2022-09-27T10:10:51;98883.47;;;14.40;70.51
51313;BME280;37397;53.226;10.400;2022-09-27T10:13:34;98874.28;;;14.41;70.51
51313;BME280;37397;53.226;10.400;2022-09-27T10:16:07;98872.41;;;14.44;70.49
51313;BME280;37397;53.226;10.400;2022-09-27T10:18:38;98871.28;;;14.47;70.41
51313;BME280;37397;53.226;10.400;2022-09-27T10:21:11;98869.22;;;14.48;70.58
51313;BME280;37397;53.226;10.400;2022-09-27T10:24:14;98874.94;;;14.48;70.34
51313;BME280;37397;53.226;10.400;2022-09-27T10:26:50;98868.66;;;14.49;70.54
51313;BME280;37397;53.226;10.400;2022-09-27T10:29:24;98877.66;;;14.53;70.37
51313;BME280;37397;53.226;10.400;2022-09-27T10:32:01;98882.09;;;14.54;70.36
51313;BME280;37397;53.226;10.400;2022-09-27T10:34:37;98877.31;;;14.57;70.32
51313;BME280;37397;53.226;10.400;2022-09-27T10:37:21;98875.25;;;14.57;70.14
51313;BME280;37397;53.226;10.400;2022-09-27T10:40:26;98882.78;;;14.61;70.08
51313;BME280;37397;53.226;10.400;2022-09-27T10:42:55;98879.91;;;14.61;70.30
51313;BME280;37397;53.226;10.400;2022-09-27T10:45:32;98886.84;;;14.65;70.20
51313;BME280;37397;53.226;10.400;2022-09-27T10:48:18;98881.84;;;14.66;69.84
51313;BME280;37397;53.226;10.400;2022-09-27T10:50:57;98881.84;;;14.66;69.94
51313;BME280;37397;53.226;10.400;2022-09-27T10:53:35;98886.91;;;14.73;70.13
51313;BME280;37397;53.226;10.400;2022-09-27T10:56:20;98887.69;;;14.73;69.94
51313;BME280;37397;53.226;10.400;2022-09-27T10:58:47;98886.78;;;14.79;70.05
51313;BME280;37397;53.226;10.400;2022-09-27T11:01:16;98895.03;;;14.82;69.84
51313;BME280;37397;53.226;10.400;2022-09-27T11:04:19;98895.78;;;14.83;69.63
51313;BME280;37397;53.226;10.400;2022-09-27T11:06:47;98893.91;;;14.85;69.74
51313;BME280;37397;53.226;10.400;2022-09-27T11:09:22;98897.00;;;14.87;69.35
51313;BME280;37397;53.226;10.400;2022-09-27T11:12:12;98904.28;;;14.88;69.17
51313;BME280;37397;53.226;10.400;2022-09-27T11:14:42;98901.84;;;14.92;69.27
51313;BME280;37397;53.226;10.400;2022-09-27T11:17:31;98910.47;;;14.92;68.95
51313;BME280;37397;53.226;10.400;2022-09-27T11:23:07;98905.84;;;14.89;68.82
51313;BME280;37397;53.226;10.400;2022-09-27T11:25:58;98914.75;;;14.99;68.92
51313;BME280;37397;53.226;10.400;2022-09-27T11:31:53;98907.44;;;14.98;68.74
51313;BME280;37397;53.226;10.400;2022-09-27T11:34:28;98919.69;;;14.99;68.71
51313;BME280;37397;53.226;10.400;2022-09-27T11:37:26;98907.44;;;14.98;68.56
51313;BME280;37397;53.226;10.400;2022-09-27T11:40:02;98908.78;;;14.97;68.49
51313;BME280;37397;53.226;10.400;2022-09-27T11:48:51;98918.72;;;14.96;68.54
51313;BME280;37397;53.226;10.400;2022-09-27T11:57:27;98920.81;;;14.95;68.49
51313;BME280;37397;53.226;10.400;2022-09-27T12:00:14;98920.81;;;14.95;68.66
51313;BME280;37397;53.226;10.400;2022-09-27T12:03:22;98909.47;;;14.90;68.57
51313;BME280;37397;53.226;10.400;2022-09-27T12:06:11;98910.47;;;14.92;68.78
51313;BME280;37397;53.226;10.400;2022-09-27T12:16:52;98923.13;;;14.97;69.10
51313;BME280;37397;53.226;10.400;2022-09-27T12:19:33;98921.59;;;14.96;69.12
51313;BME280;37397;53.226;10.400;2022-09-27T12:22:08;98928.31;;;14.99;68.96
51313;BME280;37397;53.226;10.400;2022-09-27T12:24:39;98935.97;;;14.96;68.83
51313;BME280;37397;53.226;10.400;2022-09-27T12:27:41;98939.19;;;14.92;68.52
51313;BME280;37397;53.226;10.400;2022-09-27T12:30:14;98937.44;;;14.89;68.54
51313;BME280;37397;53.226;10.400;2022-09-27T12:33:20;98933.00;;;14.88;68.39
51313;BME280;37397;53.226;10.400;2022-09-27T12:35:51;98933.00;;;14.88;68.58
51313;BME280;37397;53.226;10.400;2022-09-27T12:41:04;98941.81;;;14.90;68.69
51313;BME280;37397;53.226;10.400;2022-09-27T12:43:47;98935.88;;;14.88;68.51
51313;BME280;37397;53.226;10.400;2022-09-27T12:49:44;98938.00;;;14.88;68.89
51313;BME280;37397;53.226;10.400;2022-09-27T12:52:15;98943.19;;;14.89;69.00
51313;BME280;37397;53.226;10.400;2022-09-27T12:58:28;98936.44;;;14.87;69.09
51313;BME280;37397;53.226;10.400;2022-09-27T13:04:03;98936.63;;;14.89;69.39
51313;BME280;37397;53.226;10.400;2022-09-27T13:06:48;98945.06;;;14.87;69.52
51313;BME280;37397;53.226;10.400;2022-09-27T13:09:27;98948.38;;;14.91;69.22
51313;BME280;37397;53.226;10.400;2022-09-27T13:12:08;98952.19;;;14.93;69.32
51313;BME280;37397;53.226;10.400;2022-09-27T13:14:56;98955.28;;;14.95;69.25
51313;BME280;37397;53.226;10.400;2022-09-27T13:17:46;98956.84;;;14.97;69.05
51313;BME280;37397;53.226;10.400;2022-09-27T13:26:00;98966.09;;;15.03;68.82
51313;BME280;37397;53.226;10.400;2022-09-27T13:34:48;98989.06;;;15.03;68.44
51313;BME280;37397;53.226;10.400;2022-09-27T13:40:21;98980.25;;;15.01;68.10
51313;BME280;37397;53.226;10.400;2022-09-27T13:45:50;98990.81;;;15.06;68.06
51313;BME280;37397;53.226;10.400;2022-09-27T13:48:37;98986.75;;;15.01;67.80
51313;BME280;37397;53.226;10.400;2022-09-27T13:54:03;99000.75;;;15.05;67.73
51313;BME280;37397;53.226;10.400;2022-09-27T13:59:09;98999.25;;;15.04;67.70
51313;BME280;37397;53.226;10.400;2022-09-27T14:01:46;98997.13;;;15.04;67.60
51313;BME280;37397;53.226;10.400;2022-09-27T14:04:23;99006.31;;;15.03;67.08
51313;BME280;37397;53.226;10.400;2022-09-27T14:06:55;99009.38;;;15.05;67.32
51313;BME280;37397;53.226;10.400;2022-09-27T14:09:33;99002.13;;;15.04;67.16
51313;BME280;37397;53.226;10.400;2022-09-27T14:12:18;99006.50;;;15.05;67.31
51313;BME280;37397;53.226;10.400;2022-09-27T14:14:48;99014.91;;;15.03;67.30
51313;BME280;37397;53.226;10.400;2022-09-27T14:17:17;99001.31;;;15.03;67.17
51313;BME280;37397;53.226;10.400;2022-09-27T14:19:44;99020.88;;;15.05;67.16
51313;BME280;37397;53.226;10.400;2022-09-27T14:22:15;99026.63;;;15.05;67.17
51313;BME280;37397;53.226;10.400;2022-09-27T14:24:54;99025.84;;;15.04;67.22
51313;BME280;37397;53.226;10.400;2022-09-27T14:27:31;99028.53;;;15.02;67.18
51313;BME280;37397;53.226;10.400;2022-09-27T14:30:13;99033.72;;;15.04;67.15
51313;BME280;37397;53.226;10.400;2022-09-27T14:32:48;99031.94;;;15.01;67.15
51313;BME280;37397;53.226;10.400;2022-09-27T14:35:25;99037.69;;;15.01;66.99
51313;BME280;37397;53.226;10.400;2022-09-27T14:38:13;99032.50;;;14.99;67.03
51313;BME280;37397;53.226;10.400;2022-09-27T14:41:05;99047.06;;;15.01;67.06
51313;BME280;37397;53.226;10.400;2022-09-27T14:43:34;99049.19;;;15.01;67.17
51313;BME280;37397;53.226;10.400;2022-09-27T14:46:03;99041.88;;;15.00;67.23
51313;BME280;37397;53.226;10.400;2022-09-27T14:48:35;99050.50;;;15.00;67.29
51313;BME280;37397;53.226;10.400;2022-09-27T14:53:48;99048.53;;;14.94;67.22
51313;BME280;37397;53.226;10.400;2022-09-27T14:56:18;99045.31;;;14.98;67.12
51313;BME280;37397;53.226;10.400;2022-09-27T14:58:54;99053.72;;;14.96;67.06
51313;BME280;37397;53.226;10.400;2022-09-27T15:01:27;99052.38;;;14.97;67.24
51313;BME280;37397;53.226;10.400;2022-09-27T15:04:01;99055.25;;;14.97;67.11
51313;BME280;37397;53.226;10.400;2022-09-27T15:06:28;99053.28;;;14.92;67.22
51313;BME280;37397;53.226;10.400;2022-09-27T15:08:57;99059.22;;;14.94;67.17
51313;BME280;37397;53.226;10.400;2022-09-27T15:11:24;99061.34;;;14.93;67.13
51313;BME280;37397;53.226;10.400;2022-09-27T15:13:51;99059.81;;;14.92;66.97
51313;BME280;37397;53.226;10.400;2022-09-27T15:16:20;99057.69;;;14.93;66.91
51313;BME280;37397;53.226;10.400;2022-09-27T15:18:58;99060.91;;;14.89;67.01
51313;BME280;37397;53.226;10.400;2022-09-27T15:21:32;99056.69;;;14.90;66.90
51313;BME280;37397;53.226;10.400;2022-09-27T15:24:00;99067.44;;;14.90;66.91
51313;BME280;37397;53.226;10.400;2022-09-27T15:26:40;99062.78;;;14.87;66.84
51313;BME280;37397;53.226;10.400;2022-09-27T15:29:18;99057.59;;;14.85;66.86
51313;BME280;37397;53.226;10.400;2022-09-27T15:31:44;99055.50;;;14.86;66.91
51313;BME280;37397;53.226;10.400;2022-09-27T15:34:17;99058.91;;;14.84;66.95
51313;BME280;37397;53.226;10.400;2022-09-27T15:36:56;99063.13;;;14.83;67.09
51313;BME280;37397;53.226;10.400;2022-09-27T15:39:33;99058.72;;;14.82;67.01